sensor_id;sensor_type;location;lat;lon;timestamp;pressure;altitude;pressure_sealevel;temperature;humidity
9249;BME280;4660;41.768;26.198;2024-02-15T00:02:13;101224.50;;;8.95;100.00
9249;BME280;4660;41.768;26.198;2024-02-15T00:04:38;101219.72;;;8.88;100.00
9249;BME280;4660;41.768;26.198;2024-02-15T00:07:04;101234.00;;;8.88;100.00
9249;BME280;4660;41.768;26.198;2024-02-15T00:09:29;101215.94;;;8.79;100.00
9249;BME280;4660;41.768;26.198;2024-02-15T00:11:56;101223.22;;;8.77;100.00
9249;BME280;4660;41.768;26.198;2024-02-15T00:14:21;101232.03;;;8.79;100.00
9249;BME280;4660;41.768;26.198;2024-02-15T00:16:47;101205.66;;;8.73;100.00
9249;BME280;4660;41.768;26.198;2024-02-15T00:19:12;101224.63;;;8.94;100.00
9249;BME280;4660;41.768;26.198;2024-02-15T00:21:43;101208.03;;;9.00;100.00
9249;BME280;4660;41.768;26.198;2024-02-15T00:24:08;101217.81;;;9.12;100.00
9249;BME280;4660;41.768;26.198;2024-02-15T00:26:35;101222.59;;;9.08;100.00
9249;BME280;4660;41.768;26.198;2024-02-15T00:29:01;101224.75;;;9.03;100.00
9249;BME280;4660;41.768;26.198;2024-02-15T00:31:27;101224.97;;;8.89;100.00
9249;BME280;4660;41.768;26.198;2024-02-15T00:33:52;101207.59;;;8.71;100.00
9249;BME280;4660;41.768;26.198;2024-02-15T00:36:19;101219.28;;;8.70;100.00
9249;BME280;4660;41.768;26.198;2024-02-15T00:38:45;101217.38;;;8.72;100.00
9249;BME280;4660;41.768;26.198;2024-02-15T00:41:10;101219.81;;;8.75;100.00
9249;BME280;4660;41.768;26.198;2024-02-15T00:43:36;101208.34;;;8.73;100.00
9249;BME280;4660;41.768;26.198;2024-02-15T00:46:01;101223.72;;;8.82;100.00
9249;BME280;4660;41.768;26.198;2024-02-15T00:48:27;101229.75;;;8.97;100.00
9249;BME280;4660;41.768;26.198;2024-02-15T00:50:56;101223.56;;;9.07;100.00
9249;BME280;4660;41.768;26.198;2024-02-15T00:53:21;101225.53;;;9.17;100.00
9249;BME280;4660;41.768;26.198;2024-02-15T00:55:47;101233.78;;;9.14;100.00
9249;BME280;4660;41.768;26.198;2024-02-15T00:58:12;101224.25;;;8.98;100.00
9249;BME280;4660;41.768;26.198;2024-02-15T01:00:38;101219.47;;;8.91;100.00
9249;BME280;4660;41.768;26.198;2024-02-15T01:03:04;101223.72;;;8.82;100.00
9249;BME280;4660;41.768;26.198;2024-02-15T01:05:29;101224.19;;;8.76;100.00
9249;BME280;4660;41.768;26.198;2024-02-15T01:07:56;101230.09;;;8.57;100.00
9249;BME280;4660;41.768;26.198;2024-02-15T01:10:22;101219.94;;;8.73;100.00
9249;BME280;4660;41.768;26.198;2024-02-15T01:12:49;101217.38;;;8.72;100.00
9249;BME280;4660;41.768;26.198;2024-02-15T01:15:15;101224.06;;;8.77;100.00
9249;BME280;4660;41.768;26.198;2024-02-15T01:17:45;101216.88;;;8.78;100.00
9249;BME280;4660;41.768;26.198;2024-02-15T01:20:11;101193.06;;;8.62;100.00
9249;BME280;4660;41.768;26.198;2024-02-15T01:22:36;101215.47;;;8.96;100.00
9249;BME280;4660;41.768;26.198;2024-02-15T01:25:02;101202.78;;;8.87;100.00
9249;BME280;4660;41.768;26.198;2024-02-15T01:27:28;101212.53;;;8.99;100.00
9249;BME280;4660;41.768;26.198;2024-02-15T01:29:57;101199.59;;;8.82;100.00
9249;BME280;4660;41.768;26.198;2024-02-15T01:32:22;101222.16;;;8.79;100.00
9249;BME280;4660;41.768;26.198;2024-02-15T01:34:48;101201.09;;;8.62;100.00
9249;BME280;4660;41.768;26.198;2024-02-15T01:37:16;101223.94;;;8.68;100.00
9249;BME280;4660;41.768;26.198;2024-02-15T01:39:42;101217.13;;;8.75;100.00
9249;BME280;4660;41.768;26.198;2024-02-15T01:42:07;101209.69;;;8.78;100.00
9249;BME280;4660;41.768;26.198;2024-02-15T01:44:33;101222.53;;;8.86;100.00
9249;BME280;4660;41.768;26.198;2024-02-15T01:47:00;101227.66;;;8.89;100.00
9249;BME280;4660;41.768;26.198;2024-02-15T01:49:27;101210.78;;;8.76;100.00
9249;BME280;4660;41.768;26.198;2024-02-15T01:51:56;101217.59;;;8.69;100.00
9249;BME280;4660;41.768;26.198;2024-02-15T01:54:22;101216.13;;;8.65;100.00
9249;BME280;4660;41.768;26.198;2024-02-15T01:56:49;101215.94;;;8.55;100.00
9249;BME280;4660;41.768;26.198;2024-02-15T01:59:15;101212.88;;;8.48;100.00
9249;BME280;4660;41.768;26.198;2024-02-15T02:01:41;101225.56;;;8.46;100.00
9249;BME280;4660;41.768;26.198;2024-02-15T02:04:07;101218.94;;;8.39;100.00
9249;BME280;4660;41.768;26.198;2024-02-15T02:06:34;101217.22;;;8.38;100.00
9249;BME280;4660;41.768;26.198;2024-02-15T02:08:59;101240.47;;;8.62;100.00
9249;BME280;4660;41.768;26.198;2024-02-15T02:11:25;101236.63;;;8.66;100.00
9249;BME280;4660;41.768;26.198;2024-02-15T02:13:51;101244.41;;;8.69;100.00
9249;BME280;4660;41.768;26.198;2024-02-15T02:16:30;101230.28;;;8.78;100.00
9249;BME280;4660;41.768;26.198;2024-02-15T02:19:01;101229.91;;;8.71;100.00
9249;BME280;4660;41.768;26.198;2024-02-15T02:21:27;101245.16;;;8.71;100.00
9249;BME280;4660;41.768;26.198;2024-02-15T02:23:56;101246.59;;;8.64;100.00
9249;BME280;4660;41.768;26.198;2024-02-15T02:26:23;101241.13;;;8.41;100.00
9249;BME280;4660;41.768;26.198;2024-02-15T02:28:49;101225.50;;;8.35;100.00
9249;BME280;4660;41.768;26.198;2024-02-15T02:31:15;101255.44;;;8.53;100.00
9249;BME280;4660;41.768;26.198;2024-02-15T02:33:50;101240.47;;;8.62;100.00
9249;BME280;4660;41.768;26.198;2024-02-15T02:36:19;101231.72;;;8.60;100.00
9249;BME280;4660;41.768;26.198;2024-02-15T02:38:45;101245.44;;;8.79;100.00
9249;BME280;4660;41.768;26.198;2024-02-15T02:41:11;101244.22;;;8.83;100.00
9249;BME280;4660;41.768;26.198;2024-02-15T02:43:39;101244.41;;;8.69;100.00
9249;BME280;4660;41.768;26.198;2024-02-15T02:46:05;101238.22;;;8.44;100.00
9249;BME280;4660;41.768;26.198;2024-02-15T02:48:31;101243.81;;;8.28;100.00
9249;BME280;4660;41.768;26.198;2024-02-15T02:50:57;101239.88;;;8.21;100.00
9249;BME280;4660;41.768;26.198;2024-02-15T02:53:23;101226.31;;;8.12;100.00
9249;BME280;4660;41.768;26.198;2024-02-15T02:55:49;101242.84;;;8.06;100.00
9249;BME280;4660;41.768;26.198;2024-02-15T02:58:15;101238.78;;;8.00;100.00
9249;BME280;4660;41.768;26.198;2024-02-15T03:00:40;101240.09;;;7.94;100.00
9249;BME280;4660;41.768;26.198;2024-02-15T03:03:06;101229.56;;;8.04;100.00
9249;BME280;4660;41.768;26.198;2024-02-15T03:05:31;101232.97;;;8.06;100.00
9249;BME280;4660;41.768;26.198;2024-02-15T03:07:57;101231.34;;;8.16;100.00
9249;BME280;4660;41.768;26.198;2024-02-15T03:10:23;101230.69;;;8.13;100.00
9249;BME280;4660;41.768;26.198;2024-02-15T03:12:49;101235.56;;;8.08;100.00
9249;BME280;4660;41.768;26.198;2024-02-15T03:15:15;101228.47;;;8.07;100.00
9249;BME280;4660;41.768;26.198;2024-02-15T03:17:43;101227.72;;;8.05;100.00
9249;BME280;4660;41.768;26.198;2024-02-15T03:20:10;101220.25;;;7.97;100.00
9249;BME280;4660;41.768;26.198;2024-02-15T03:22:56;101227.84;;;8.03;100.00
9249;BME280;4660;41.768;26.198;2024-02-15T03:25:22;101225.94;;;7.92;100.00
9249;BME280;4660;41.768;26.198;2024-02-15T03:27:51;101215.91;;;7.83;100.00
9249;BME280;4660;41.768;26.198;2024-02-15T03:30:18;101229.28;;;7.96;100.00
9249;BME280;4660;41.768;26.198;2024-02-15T03:32:48;101221.53;;;8.04;100.00
9249;BME280;4660;41.768;26.198;2024-02-15T03:35:21;101216.31;;;8.14;100.00
9249;BME280;4660;41.768;26.198;2024-02-15T03:37:48;101217.75;;;8.07;100.00
9249;BME280;4660;41.768;26.198;2024-02-15T03:40:16;101229.16;;;7.97;100.00
9249;BME280;4660;41.768;26.198;2024-02-15T03:42:42;101237.50;;;7.93;100.00
9249;BME280;4660;41.768;26.198;2024-02-15T03:45:08;101237.88;;;7.88;100.00
9249;BME280;4660;41.768;26.198;2024-02-15T03:47:34;101231.56;;;7.77;100.00
9249;BME280;4660;41.768;26.198;2024-02-15T03:50:05;101244.75;;;7.80;100.00
9249;BME280;4660;41.768;26.198;2024-02-15T03:52:31;101230.72;;;7.76;100.00
9249;BME280;4660;41.768;26.198;2024-02-15T03:54:58;101237.16;;;7.73;100.00
9249;BME280;4660;41.768;26.198;2024-02-15T03:57:25;101234.59;;;7.72;100.00
9249;BME280;4660;41.768;26.198;2024-02-15T03:59:50;101232.22;;;7.80;100.00
9249;BME280;4660;41.768;26.198;2024-02-15T04:02:18;101236.91;;;7.89;100.00
9249;BME280;4660;41.768;26.198;2024-02-15T04:04:43;101246.88;;;7.87;100.00
9249;BME280;4660;41.768;26.198;2024-02-15T04:07:13;101242.38;;;7.75;100.00
9249;BME280;4660;41.768;26.198;2024-02-15T04:09:40;101243.13;;;7.77;100.00
9249;BME280;4660;41.768;26.198;2024-02-15T04:12:06;101233.81;;;7.70;100.00
9249;BME280;4660;41.768;26.198;2024-02-15T04:14:33;101245.31;;;7.72;100.00
9249;BME280;4660;41.768;26.198;2024-02-15T04:16:59;101251.28;;;7.63;100.00
9249;BME280;4660;41.768;26.198;2024-02-15T04:19:25;101240.81;;;7.60;100.00
9249;BME280;4660;41.768;26.198;2024-02-15T04:21:51;101238.34;;;7.57;100.00
9249;BME280;4660;41.768;26.198;2024-02-15T04:24:16;101246.16;;;7.60;100.00
9249;BME280;4660;41.768;26.198;2024-02-15T04:26:42;101242.94;;;7.67;100.00
9249;BME280;4660;41.768;26.198;2024-02-15T04:29:07;101220.81;;;7.53;100.00
9249;BME280;4660;41.768;26.198;2024-02-15T04:31:34;101260.59;;;7.70;100.00
9249;BME280;4660;41.768;26.198;2024-02-15T04:34:02;101253.88;;;7.64;100.00
9249;BME280;4660;41.768;26.198;2024-02-15T04:36:28;101251.22;;;7.52;100.00
9249;BME280;4660;41.768;26.198;2024-02-15T04:39:00;101261.81;;;7.53;100.00
9249;BME280;4660;41.768;26.198;2024-02-15T04:41:28;101268.03;;;7.41;100.00
9249;BME280;4660;41.768;26.198;2024-02-15T04:43:54;101262.47;;;7.31;100.00
9249;BME280;4660;41.768;26.198;2024-02-15T04:46:20;101260.53;;;7.33;100.00
9249;BME280;4660;41.768;26.198;2024-02-15T04:48:50;101270.19;;;7.36;100.00
9249;BME280;4660;41.768;26.198;2024-02-15T04:51:16;101274.22;;;7.41;100.00
9249;BME280;4660;41.768;26.198;2024-02-15T04:53:42;101279.16;;;7.48;100.00
9249;BME280;4660;41.768;26.198;2024-02-15T04:56:09;101292.00;;;7.42;100.00
9249;BME280;4660;41.768;26.198;2024-02-15T04:58:42;101272.53;;;7.40;100.00
9249;BME280;4660;41.768;26.198;2024-02-15T05:01:15;101278.53;;;7.31;100.00
9249;BME280;4660;41.768;26.198;2024-02-15T05:03:42;101281.28;;;7.17;100.00
9249;BME280;4660;41.768;26.198;2024-02-15T05:06:08;101282.16;;;7.17;100.00
9249;BME280;4660;41.768;26.198;2024-02-15T05:08:34;101298.66;;;7.24;100.00
9249;BME280;4660;41.768;26.198;2024-02-15T05:11:11;101289.09;;;7.07;100.00
9249;BME280;4660;41.768;26.198;2024-02-15T05:13:48;101305.47;;;7.03;100.00
9249;BME280;4660;41.768;26.198;2024-02-15T05:16:16;101306.84;;;6.96;100.00
9249;BME280;4660;41.768;26.198;2024-02-15T05:18:42;101310.59;;;7.06;100.00
9249;BME280;4660;41.768;26.198;2024-02-15T05:21:08;101314.16;;;7.19;100.00
9249;BME280;4660;41.768;26.198;2024-02-15T05:23:36;101325.50;;;7.10;100.00
9249;BME280;4660;41.768;26.198;2024-02-15T05:26:03;101310.59;;;7.06;100.00
9249;BME280;4660;41.768;26.198;2024-02-15T05:28:29;101301.34;;;6.84;100.00
9249;BME280;4660;41.768;26.198;2024-02-15T05:31:14;101304.56;;;6.89;100.00
9249;BME280;4660;41.768;26.198;2024-02-15T05:33:52;101320.66;;;7.02;100.00
9249;BME280;4660;41.768;26.198;2024-02-15T05:36:20;101325.34;;;6.99;100.00
9249;BME280;4660;41.768;26.198;2024-02-15T05:38:51;101286.88;;;6.74;100.00
9249;BME280;4660;41.768;26.198;2024-02-15T05:41:17;101334.84;;;6.90;100.00
9249;BME280;4660;41.768;26.198;2024-02-15T05:43:42;101321.66;;;6.74;100.00
9249;BME280;4660;41.768;26.198;2024-02-15T05:46:09;101342.06;;;7.02;100.00
9249;BME280;4660;41.768;26.198;2024-02-15T05:48:36;101333.78;;;6.93;100.00
9249;BME280;4660;41.768;26.198;2024-02-15T05:51:03;101356.94;;;7.06;100.00
9249;BME280;4660;41.768;26.198;2024-02-15T05:53:30;101348.16;;;6.77;100.00
9249;BME280;4660;41.768;26.198;2024-02-15T05:55:56;101343.91;;;6.75;100.00
9249;BME280;4660;41.768;26.198;2024-02-15T05:58:24;101338.31;;;6.65;100.00
9249;BME280;4660;41.768;26.198;2024-02-15T06:00:49;101352.38;;;6.81;100.00
9249;BME280;4660;41.768;26.198;2024-02-15T06:03:19;101352.47;;;6.80;100.00
9249;BME280;4660;41.768;26.198;2024-02-15T06:05:48;101368.13;;;6.86;100.00
9249;BME280;4660;41.768;26.198;2024-02-15T06:08:13;101369.38;;;6.80;100.00
9249;BME280;4660;41.768;26.198;2024-02-15T06:10:39;101365.03;;;6.92;100.00
9249;BME280;4660;41.768;26.198;2024-02-15T06:13:05;101374.47;;;6.98;100.00
9249;BME280;4660;41.768;26.198;2024-02-15T06:15:31;101371.31;;;7.18;100.00
9249;BME280;4660;41.768;26.198;2024-02-15T06:17:57;101371.09;;;7.08;100.00
9249;BME280;4660;41.768;26.198;2024-02-15T06:20:23;101363.13;;;7.07;100.00
9249;BME280;4660;41.768;26.198;2024-02-15T06:22:50;101376.88;;;7.15;100.00
9249;BME280;4660;41.768;26.198;2024-02-15T06:25:17;101375.22;;;7.00;100.00
9249;BME280;4660;41.768;26.198;2024-02-15T06:27:46;101337.47;;;6.77;100.00
9249;BME280;4660;41.768;26.198;2024-02-15T06:30:12;101381.47;;;7.13;100.00
9249;BME280;4660;41.768;26.198;2024-02-15T06:32:59;101387.44;;;7.04;100.00
9249;BME280;4660;41.768;26.198;2024-02-15T06:35:43;101387.03;;;7.10;100.00
9249;BME280;4660;41.768;26.198;2024-02-15T06:38:28;101383.63;;;7.21;100.00
9249;BME280;4660;41.768;26.198;2024-02-15T06:41:13;101389.88;;;7.47;100.00
9249;BME280;4660;41.768;26.198;2024-02-15T06:43:39;101395.03;;;7.50;100.00
9249;BME280;4660;41.768;26.198;2024-02-15T06:46:08;101387.44;;;7.56;100.00
9249;BME280;4660;41.768;26.198;2024-02-15T06:48:36;101385.31;;;7.61;100.00
9249;BME280;4660;41.768;26.198;2024-02-15T06:51:02;101378.03;;;7.76;100.00
9249;BME280;4660;41.768;26.198;2024-02-15T06:53:29;101372.47;;;7.79;100.00
9249;BME280;4660;41.768;26.198;2024-02-15T06:55:55;101370.00;;;7.89;100.00
9249;BME280;4660;41.768;26.198;2024-02-15T06:58:22;101362.13;;;8.11;100.00
9249;BME280;4660;41.768;26.198;2024-02-15T07:00:48;101373.59;;;8.39;100.00
9249;BME280;4660;41.768;26.198;2024-02-15T07:03:15;101367.81;;;8.69;100.00
9249;BME280;4660;41.768;26.198;2024-02-15T07:05:43;101369.41;;;8.71;100.00
9249;BME280;4660;41.768;26.198;2024-02-15T07:08:09;101376.22;;;8.88;100.00
9249;BME280;4660;41.768;26.198;2024-02-15T07:10:40;101373.84;;;8.60;100.00
9249;BME280;4660;41.768;26.198;2024-02-15T07:13:06;101385.91;;;8.78;100.00
9249;BME280;4660;41.768;26.198;2024-02-15T07:15:33;101384.03;;;8.67;100.00
9249;BME280;4660;41.768;26.198;2024-02-15T07:18:05;101380.94;;;8.61;100.00
9249;BME280;4660;41.768;26.198;2024-02-15T07:20:33;101373.56;;;8.51;100.00
9249;BME280;4660;41.768;26.198;2024-02-15T07:22:58;101313.59;;;8.03;100.00
9249;BME280;4660;41.768;26.198;2024-02-15T07:25:24;101394.72;;;8.43;100.00
9249;BME280;4660;41.768;26.198;2024-02-15T07:27:49;101373.84;;;8.60;100.00
9249;BME280;4660;41.768;26.198;2024-02-15T07:30:15;101381.66;;;8.63;100.00
9249;BME280;4660;41.768;26.198;2024-02-15T07:32:40;101379.91;;;8.74;100.00
9249;BME280;4660;41.768;26.198;2024-02-15T07:35:06;101386.38;;;8.96;100.00
9249;BME280;4660;41.768;26.198;2024-02-15T07:37:33;101382.09;;;8.93;100.00
9249;BME280;4660;41.768;26.198;2024-02-15T07:39:59;101382.84;;;8.95;100.00
9249;BME280;4660;41.768;26.198;2024-02-15T07:42:25;101384.25;;;9.12;100.00
9249;BME280;4660;41.768;26.198;2024-02-15T07:44:52;101376.03;;;9.02;100.00
9249;BME280;4660;41.768;26.198;2024-02-15T07:47:20;101366.81;;;9.18;100.00
9249;BME280;4660;41.768;26.198;2024-02-15T07:49:50;101394.91;;;9.25;100.00
9249;BME280;4660;41.768;26.198;2024-02-15T07:52:15;101369.31;;;9.32;100.00
9249;BME280;4660;41.768;26.198;2024-02-15T07:54:41;101375.25;;;9.59;100.00
9249;BME280;4660;41.768;26.198;2024-02-15T07:57:06;101381.78;;;9.79;100.00
9249;BME280;4660;41.768;26.198;2024-02-15T07:59:32;101372.34;;;9.85;100.00
9249;BME280;4660;41.768;26.198;2024-02-15T08:01:58;101364.03;;;9.77;100.00
9249;BME280;4660;41.768;26.198;2024-02-15T08:04:23;101368.72;;;9.86;100.00
9249;BME280;4660;41.768;26.198;2024-02-15T08:06:50;101361.13;;;9.80;100.00
9249;BME280;4660;41.768;26.198;2024-02-15T08:09:19;101363.78;;;9.69;100.00
9249;BME280;4660;41.768;26.198;2024-02-15T08:11:49;101369.16;;;9.69;100.00
9249;BME280;4660;41.768;26.198;2024-02-15T08:14:22;101375.78;;;9.87;100.00
9249;BME280;4660;41.768;26.198;2024-02-15T08:16:48;101362.59;;;9.95;100.00
9249;BME280;4660;41.768;26.198;2024-02-15T08:19:14;101317.16;;;9.81;100.00
9249;BME280;4660;41.768;26.198;2024-02-15T08:21:39;101337.06;;;10.01;100.00
9249;BME280;4660;41.768;26.198;2024-02-15T08:24:09;101363.34;;;10.31;100.00
9249;BME280;4660;41.768;26.198;2024-02-15T08:26:39;101359.31;;;10.25;100.00
9249;BME280;4660;41.768;26.198;2024-02-15T08:29:05;101357.97;;;10.08;100.00
9249;BME280;4660;41.768;26.198;2024-02-15T08:31:35;101363.09;;;10.00;100.00
9249;BME280;4660;41.768;26.198;2024-02-15T08:34:05;101354.03;;;9.90;100.00
9249;BME280;4660;41.768;26.198;2024-02-15T08:36:31;101337.41;;;9.74;100.00
9249;BME280;4660;41.768;26.198;2024-02-15T08:38:57;101362.81;;;9.70;100.00
9249;BME280;4660;41.768;26.198;2024-02-15T08:41:22;101366.00;;;9.75;100.00
9249;BME280;4660;41.768;26.198;2024-02-15T08:43:52;101367.78;;;9.63;100.00
9249;BME280;4660;41.768;26.198;2024-02-15T08:46:19;101365.75;;;9.78;100.00
9249;BME280;4660;41.768;26.198;2024-02-15T08:48:49;101358.91;;;9.85;100.00
9249;BME280;4660;41.768;26.198;2024-02-15T08:51:15;101388.25;;;10.10;100.00
9249;BME280;4660;41.768;26.198;2024-02-15T08:53:41;101332.78;;;10.09;100.00
9249;BME280;4660;41.768;26.198;2024-02-15T08:56:08;101375.09;;;10.30;100.00
9249;BME280;4660;41.768;26.198;2024-02-15T08:58:35;101356.75;;;10.24;100.00
9249;BME280;4660;41.768;26.198;2024-02-15T09:01:01;101376.78;;;10.42;100.00
9249;BME280;4660;41.768;26.198;2024-02-15T09:03:28;101371.19;;;10.23;100.00
9249;BME280;4660;41.768;26.198;2024-02-15T09:05:54;101377.88;;;10.39;100.00
9249;BME280;4660;41.768;26.198;2024-02-15T09:08:19;101375.56;;;10.35;100.00
9249;BME280;4660;41.768;26.198;2024-02-15T09:10:51;101372.88;;;10.35;100.00
9249;BME280;4660;41.768;26.198;2024-02-15T09:13:18;101351.47;;;10.33;100.00
9249;BME280;4660;41.768;26.198;2024-02-15T09:15:43;101364.56;;;10.27;100.00
9249;BME280;4660;41.768;26.198;2024-02-15T09:18:09;101364.22;;;10.31;100.00
9249;BME280;4660;41.768;26.198;2024-02-15T09:20:37;101375.69;;;10.44;100.00
9249;BME280;4660;41.768;26.198;2024-02-15T09:23:06;101346.72;;;10.14;100.00
9249;BME280;4660;41.768;26.198;2024-02-15T09:25:39;101376.09;;;10.29;100.00
9249;BME280;4660;41.768;26.198;2024-02-15T09:28:05;101338.66;;;10.14;100.00
9249;BME280;4660;41.768;26.198;2024-02-15T09:30:31;101385.59;;;10.44;100.00
9249;BME280;4660;41.768;26.198;2024-02-15T09:32:57;101370.53;;;10.41;100.00
9249;BME280;4660;41.768;26.198;2024-02-15T09:35:30;101366.38;;;10.48;100.00
9249;BME280;4660;41.768;26.198;2024-02-15T09:37:56;101350.78;;;10.74;100.00
9249;BME280;4660;41.768;26.198;2024-02-15T09:40:22;101364.66;;;11.02;99.74
9249;BME280;4660;41.768;26.198;2024-02-15T09:42:52;101366.09;;;11.38;100.00
9249;BME280;4660;41.768;26.198;2024-02-15T09:45:18;101362.88;;;11.65;97.06
9249;BME280;4660;41.768;26.198;2024-02-15T09:47:46;101352.66;;;11.48;97.80
9249;BME280;4660;41.768;26.198;2024-02-15T09:50:16;101339.50;;;11.13;98.34
9249;BME280;4660;41.768;26.198;2024-02-15T09:52:51;101360.59;;;11.28;98.51
9249;BME280;4660;41.768;26.198;2024-02-15T09:55:18;101355.81;;;11.11;98.73
9249;BME280;4660;41.768;26.198;2024-02-15T09:57:47;101332.69;;;11.09;98.49
9249;BME280;4660;41.768;26.198;2024-02-15T10:00:13;101376.66;;;11.30;98.77
9249;BME280;4660;41.768;26.198;2024-02-15T10:02:50;101356.31;;;11.05;98.94
9249;BME280;4660;41.768;26.198;2024-02-15T10:05:17;101345.94;;;11.00;98.80
9249;BME280;4660;41.768;26.198;2024-02-15T10:07:44;101344.63;;;10.95;98.74
9249;BME280;4660;41.768;26.198;2024-02-15T10:10:22;101344.41;;;10.87;98.66
9249;BME280;4660;41.768;26.198;2024-02-15T10:12:51;101345.69;;;11.03;98.44
9249;BME280;4660;41.768;26.198;2024-02-15T10:17:59;101311.47;;;11.15;96.85
9249;BME280;4660;41.768;26.198;2024-02-15T10:20:25;101339.53;;;11.34;97.42
9249;BME280;4660;41.768;26.198;2024-02-15T10:23:09;101325.16;;;11.23;97.20
9249;BME280;4660;41.768;26.198;2024-02-15T10:25:36;101329.69;;;11.23;97.75
9249;BME280;4660;41.768;26.198;2024-02-15T10:28:06;101314.28;;;11.14;97.34
9249;BME280;4660;41.768;26.198;2024-02-15T10:30:43;101323.44;;;11.22;97.43
9249;BME280;4660;41.768;26.198;2024-02-15T10:33:26;101311.78;;;11.43;97.28
9249;BME280;4660;41.768;26.198;2024-02-15T10:36:09;101302.41;;;11.58;96.84
9249;BME280;4660;41.768;26.198;2024-02-15T10:38:36;101312.38;;;11.88;95.34
9249;BME280;4660;41.768;26.198;2024-02-15T10:41:07;101313.94;;;11.91;95.27
9249;BME280;4660;41.768;26.198;2024-02-15T10:43:34;101304.81;;;11.61;94.37
9249;BME280;4660;41.768;26.198;2024-02-15T10:46:00;101297.75;;;11.70;93.46
9249;BME280;4660;41.768;26.198;2024-02-15T10:48:26;101311.16;;;12.02;94.39
9249;BME280;4660;41.768;26.198;2024-02-15T10:50:56;101311.47;;;12.08;93.22
9249;BME280;4660;41.768;26.198;2024-02-15T10:53:27;101318.41;;;12.11;92.13
9249;BME280;4660;41.768;26.198;2024-02-15T10:55:58;101312.84;;;12.03;92.66
9249;BME280;4660;41.768;26.198;2024-02-15T10:58:26;101312.56;;;12.06;91.90
9249;BME280;4660;41.768;26.198;2024-02-15T11:00:59;101313.47;;;12.16;91.79
9249;BME280;4660;41.768;26.198;2024-02-15T11:03:34;101325.06;;;12.07;92.98
9249;BME280;4660;41.768;26.198;2024-02-15T11:06:02;101310.22;;;11.92;93.80
9249;BME280;4660;41.768;26.198;2024-02-15T11:08:32;101239.56;;;11.57;93.17
9249;BME280;4660;41.768;26.198;2024-02-15T11:10:58;101299.59;;;11.90;94.20
9249;BME280;4660;41.768;26.198;2024-02-15T11:13:24;101281.25;;;11.84;93.10
9249;BME280;4660;41.768;26.198;2024-02-15T11:15:52;101297.38;;;12.05;92.56
9249;BME280;4660;41.768;26.198;2024-02-15T11:18:42;101267.84;;;12.03;92.78
9249;BME280;4660;41.768;26.198;2024-02-15T11:21:10;101266.84;;;11.95;91.77
9249;BME280;4660;41.768;26.198;2024-02-15T11:23:36;101236.06;;;11.67;91.40
9249;BME280;4660;41.768;26.198;2024-02-15T11:26:01;101286.03;;;12.01;91.80
9249;BME280;4660;41.768;26.198;2024-02-15T11:30:55;101285.25;;;12.30;91.79
9249;BME280;4660;41.768;26.198;2024-02-15T11:33:29;101271.31;;;12.34;91.77
9249;BME280;4660;41.768;26.198;2024-02-15T11:36:08;101277.88;;;12.42;90.03
9249;BME280;4660;41.768;26.198;2024-02-15T11:38:35;101262.22;;;12.26;90.07
9249;BME280;4660;41.768;26.198;2024-02-15T11:41:05;101276.06;;;12.52;89.05
9249;BME280;4660;41.768;26.198;2024-02-15T11:46:20;101265.00;;;12.64;87.70
9249;BME280;4660;41.768;26.198;2024-02-15T11:49:07;101254.88;;;12.57;86.09
9249;BME280;4660;41.768;26.198;2024-02-15T11:51:41;101265.28;;;12.81;87.07
9249;BME280;4660;41.768;26.198;2024-02-15T11:54:10;101267.09;;;12.71;86.69
9249;BME280;4660;41.768;26.198;2024-02-15T11:56:49;101252.75;;;12.70;86.78
9249;BME280;4660;41.768;26.198;2024-02-15T11:59:20;101257.16;;;12.71;88.16
9249;BME280;4660;41.768;26.198;2024-02-15T12:01:58;101247.03;;;12.34;87.41
9249;BME280;4660;41.768;26.198;2024-02-15T12:04:43;101226.31;;;12.25;87.07
9249;BME280;4660;41.768;26.198;2024-02-15T12:07:28;101254.72;;;12.39;87.48
9249;BME280;4660;41.768;26.198;2024-02-15T12:10:16;101244.50;;;12.43;86.65
9249;BME280;4660;41.768;26.198;2024-02-15T12:13:00;101223.50;;;12.46;86.74
9249;BME280;4660;41.768;26.198;2024-02-15T12:15:56;101263.69;;;12.78;85.33
9249;BME280;4660;41.768;26.198;2024-02-15T12:18:41;101240.13;;;12.61;84.60
9249;BME280;4660;41.768;26.198;2024-02-15T12:21:17;101239.69;;;12.65;84.07
9249;BME280;4660;41.768;26.198;2024-02-15T12:23:43;101246.50;;;12.89;84.97
9249;BME280;4660;41.768;26.198;2024-02-15T12:26:08;101233.16;;;12.87;83.96
9249;BME280;4660;41.768;26.198;2024-02-15T12:28:34;101249.50;;;12.76;84.06
9249;BME280;4660;41.768;26.198;2024-02-15T12:31:01;101250.06;;;12.70;83.97
9249;BME280;4660;41.768;26.198;2024-02-15T12:33:26;101241.25;;;12.58;84.21
9249;BME280;4660;41.768;26.198;2024-02-15T12:36:03;101254.75;;;12.68;84.12
9249;BME280;4660;41.768;26.198;2024-02-15T12:38:29;101221.19;;;12.42;85.18
9249;BME280;4660;41.768;26.198;2024-02-15T12:40:55;101232.56;;;12.55;85.99
9249;BME280;4660;41.768;26.198;2024-02-15T12:43:22;101235.84;;;12.68;86.04
9249;BME280;4660;41.768;26.198;2024-02-15T12:45:47;101222.66;;;12.65;86.71
9249;BME280;4660;41.768;26.198;2024-02-15T12:48:13;101212.38;;;12.78;85.71
9249;BME280;4660;41.768;26.198;2024-02-15T12:50:40;101218.06;;;12.85;86.78
9249;BME280;4660;41.768;26.198;2024-02-15T12:53:06;101226.31;;;12.83;86.13
9249;BME280;4660;41.768;26.198;2024-02-15T12:55:35;101214.94;;;12.89;86.40
9249;BME280;4660;41.768;26.198;2024-02-15T12:58:02;101220.94;;;12.64;86.26
9249;BME280;4660;41.768;26.198;2024-02-15T13:00:36;101188.97;;;12.50;86.39
9249;BME280;4660;41.768;26.198;2024-02-15T13:03:08;101215.53;;;12.54;85.79
9249;BME280;4660;41.768;26.198;2024-02-15T13:05:39;101248.22;;;12.61;86.32
9249;BME280;4660;41.768;26.198;2024-02-15T13:08:05;101228.16;;;12.63;86.31
9249;BME280;4660;41.768;26.198;2024-02-15T13:10:35;101232.28;;;12.48;87.08
9249;BME280;4660;41.768;26.198;2024-02-15T13:13:03;101232.84;;;12.42;86.56
9249;BME280;4660;41.768;26.198;2024-02-15T13:15:30;101225.16;;;12.28;86.43